createdAt,value
2022-12-31T00:01:30.868Z,14.63
2022-12-31T00:03:59.745Z,14.46
2022-12-31T00:06:36.628Z,14.70
2022-12-31T00:09:09.217Z,14.57
2022-12-31T00:11:38.396Z,14.56
2022-12-31T00:14:08.632Z,14.75
2022-12-31T00:16:40.593Z,14.88
2022-12-31T00:19:12.180Z,14.44
2022-12-31T00:21:40.992Z,14.64
2022-12-31T00:24:13.313Z,14.58
2022-12-31T00:26:41.767Z,14.79
2022-12-31T00:29:11.298Z,14.77
2022-12-31T00:31:40.732Z,14.93
2022-12-31T00:34:09.377Z,14.78
2022-12-31T00:36:41.549Z,14.52
2022-12-31T00:39:12.269Z,14.73
2022-12-31T00:41:41.132Z,14.88
2022-12-31T00:44:14.199Z,14.76
2022-12-31T00:49:11.776Z,14.72
2022-12-31T00:51:40.361Z,14.64
2022-12-31T00:54:10.568Z,14.59
2022-12-31T00:56:39.347Z,14.49
2022-12-31T00:59:09.492Z,14.70
2022-12-31T01:01:40.483Z,14.49
2022-12-31T01:04:11.958Z,14.81
2022-12-31T01:06:41.160Z,14.51
2022-12-31T01:09:12.296Z,14.56
2022-12-31T01:11:41.372Z,14.60
2022-12-31T01:14:13.632Z,14.63
2022-12-31T01:16:45.520Z,14.65
2022-12-31T01:19:17.543Z,14.58
2022-12-31T01:21:47.609Z,14.80
2022-12-31T01:24:20.837Z,14.63
2022-12-31T01:26:50.834Z,14.61
2022-12-31T01:29:19.578Z,14.53
2022-12-31T01:31:48.804Z,14.75
2022-12-31T01:34:17.218Z,14.65
2022-12-31T01:36:45.866Z,14.69
2022-12-31T01:39:16.007Z,14.87
2022-12-31T01:41:48.019Z,14.72
2022-12-31T01:44:57.596Z,14.50
2022-12-31T01:47:38.170Z,14.86
2022-12-31T01:50:16.481Z,14.81
2022-12-31T01:52:49.368Z,14.85
2022-12-31T01:55:23.780Z,14.79
2022-12-31T01:57:57.167Z,14.93
2022-12-31T02:00:25.729Z,14.90
2022-12-31T02:02:54.653Z,14.71
2022-12-31T02:05:31.118Z,14.85
2022-12-31T02:08:00.023Z,15.00
2022-12-31T02:10:30.132Z,14.78
2022-12-31T02:12:59.226Z,14.57
2022-12-31T02:15:36.865Z,14.72
2022-12-31T02:18:16.703Z,14.62
2022-12-31T02:21:29.937Z,14.67
2022-12-31T02:24:36.469Z,14.93
2022-12-31T02:27:14.172Z,14.39
2022-12-31T02:30:20.608Z,14.78
2022-12-31T02:33:15.668Z,14.71
2022-12-31T02:35:50.360Z,14.46
2022-12-31T02:38:23.767Z,14.71
2022-12-31T02:40:53.940Z,14.60
2022-12-31T02:43:22.532Z,14.40
2022-12-31T02:46:08.943Z,14.77
2022-12-31T02:48:47.184Z,14.51
2022-12-31T02:51:35.453Z,14.46
2022-12-31T02:54:34.195Z,14.65
2022-12-31T02:57:12.417Z,14.50
2022-12-31T03:00:06.267Z,14.56
2022-12-31T03:02:40.158Z,14.67
2022-12-31T03:05:10.540Z,14.46
2022-12-31T03:07:41.594Z,14.46
2022-12-31T03:10:11.043Z,14.26
2022-12-31T03:12:49.308Z,14.56
2022-12-31T03:15:24.643Z,14.69
2022-12-31T03:18:00.189Z,14.55
2022-12-31T03:20:49.950Z,14.60
2022-12-31T03:23:23.683Z,14.37
2022-12-31T03:25:51.469Z,14.42
2022-12-31T03:28:23.985Z,14.20
2022-12-31T03:30:54.863Z,14.55
2022-12-31T03:33:26.050Z,14.40
2022-12-31T03:35:55.116Z,14.55
2022-12-31T03:38:26.467Z,14.24
2022-12-31T03:40:55.062Z,14.22
2022-12-31T03:43:23.846Z,14.29
2022-12-31T03:45:54.592Z,14.11
2022-12-31T03:48:25.555Z,14.06
2022-12-31T03:50:54.411Z,13.72
2022-12-31T03:53:23.281Z,14.31
2022-12-31T03:55:53.416Z,14.16
2022-12-31T03:58:22.809Z,14.26
2022-12-31T04:00:52.332Z,13.86
2022-12-31T04:03:21.216Z,14.09
2022-12-31T04:05:56.462Z,13.78
2022-12-31T04:08:25.230Z,13.95
2022-12-31T04:10:53.916Z,13.84
2022-12-31T04:13:22.617Z,14.14
2022-12-31T04:15:52.541Z,14.19
2022-12-31T04:18:21.110Z,14.29
2022-12-31T04:20:49.733Z,13.93
2022-12-31T04:23:20.128Z,13.92
2022-12-31T04:25:48.906Z,13.98
2022-12-31T04:28:17.877Z,13.79
2022-12-31T04:30:47.892Z,14.21
2022-12-31T04:33:16.492Z,14.02
2022-12-31T04:35:46.294Z,14.12
2022-12-31T04:38:15.186Z,14.22
2022-12-31T04:41:00.885Z,14.09
2022-12-31T04:43:29.730Z,13.85
2022-12-31T04:45:58.242Z,13.93
2022-12-31T04:48:27.258Z,13.79
2022-12-31T04:50:56.205Z,13.67
2022-12-31T04:53:25.077Z,13.55
2022-12-31T04:55:55.548Z,13.73
2022-12-31T04:58:24.531Z,14.03
2022-12-31T05:00:54.751Z,13.55
2022-12-31T05:03:30.452Z,13.89
2022-12-31T05:06:03.503Z,13.40
2022-12-31T05:08:32.910Z,13.85
2022-12-31T05:11:03.095Z,13.56
2022-12-31T05:13:33.627Z,13.72
2022-12-31T05:16:03.555Z,13.69
2022-12-31T05:18:33.572Z,13.63
2022-12-31T05:21:03.564Z,13.78
2022-12-31T05:23:32.769Z,13.98
2022-12-31T05:26:03.088Z,13.74
2022-12-31T05:28:32.742Z,13.97
2022-12-31T05:31:02.136Z,13.51
2022-12-31T05:33:31.182Z,13.09
2022-12-31T05:35:59.771Z,13.79
2022-12-31T05:38:28.743Z,13.93
2022-12-31T05:41:08.915Z,14.00
2022-12-31T05:43:39.232Z,13.81
2022-12-31T05:46:07.912Z,13.80
2022-12-31T05:48:36.402Z,13.96
2022-12-31T05:51:10.819Z,13.79
2022-12-31T05:53:39.749Z,13.46
2022-12-31T05:56:12.212Z,13.46
2022-12-31T05:58:41.278Z,13.76
2022-12-31T06:01:09.935Z,13.82
2022-12-31T06:03:38.975Z,13.73
2022-12-31T06:06:08.404Z,14.11
2022-12-31T06:08:37.333Z,14.02
2022-12-31T06:11:06.639Z,14.09
2022-12-31T06:13:37.044Z,13.95
2022-12-31T06:16:08.594Z,14.30
2022-12-31T06:18:38.969Z,13.63
2022-12-31T06:21:11.475Z,14.03
2022-12-31T06:23:44.264Z,13.93
2022-12-31T06:26:13.695Z,13.77
2022-12-31T06:28:44.372Z,13.91
2022-12-31T06:31:20.085Z,13.74
2022-12-31T06:33:49.273Z,14.13
2022-12-31T06:36:22.670Z,14.22
2022-12-31T06:38:51.663Z,14.05
2022-12-31T06:41:20.720Z,14.28
2022-12-31T06:43:50.878Z,14.20
2022-12-31T06:46:20.214Z,14.16
2022-12-31T06:48:49.041Z,14.24
2022-12-31T06:51:20.564Z,14.38
2022-12-31T06:53:50.991Z,14.01
2022-12-31T06:56:26.583Z,14.42
2022-12-31T06:59:00.876Z,14.22
2022-12-31T07:01:44.851Z,14.54
2022-12-31T07:05:00.853Z,14.32
2022-12-31T07:07:36.483Z,14.53
2022-12-31T07:10:21.584Z,14.46
2022-12-31T07:14:04.377Z,14.80
2022-12-31T07:17:01.779Z,14.65
2022-12-31T07:19:51.065Z,14.61
2022-12-31T07:22:24.505Z,14.83
2022-12-31T07:24:55.630Z,14.67
2022-12-31T07:27:50.183Z,15.02
2022-12-31T07:30:26.173Z,15.12
2022-12-31T07:33:22.862Z,15.01
2022-12-31T07:36:03.874Z,15.05
2022-12-31T07:38:43.707Z,15.08
2022-12-31T07:41:26.696Z,15.05
2022-12-31T07:44:05.143Z,15.35
2022-12-31T07:46:51.415Z,15.40
2022-12-31T07:49:21.624Z,15.30
2022-12-31T07:51:51.515Z,15.24
2022-12-31T07:54:21.100Z,15.31
2022-12-31T07:56:51.202Z,15.06
2022-12-31T07:59:36.518Z,15.20
2022-12-31T08:02:18.248Z,15.53
2022-12-31T08:04:58.473Z,15.46
2022-12-31T08:07:38.347Z,15.48
2022-12-31T08:10:18.296Z,15.59
2022-12-31T08:12:53.184Z,15.69
2022-12-31T08:15:28.454Z,15.51
2022-12-31T08:18:01.289Z,15.79
2022-12-31T08:20:33.230Z,15.62
2022-12-31T08:23:26.004Z,15.79
2022-12-31T08:26:13.075Z,16.01
2022-12-31T08:29:02.849Z,15.94
2022-12-31T08:31:42.625Z,16.04
2022-12-31T08:34:28.094Z,16.10
2022-12-31T08:37:02.748Z,16.04
2022-12-31T08:39:56.480Z,16.00
2022-12-31T08:42:40.571Z,15.93
2022-12-31T08:45:21.300Z,15.76
2022-12-31T08:48:00.421Z,15.61
2022-12-31T08:50:31.908Z,15.73
2022-12-31T08:53:01.967Z,15.70
2022-12-31T08:55:31.933Z,15.69
2022-12-31T08:58:22.361Z,16.00
2022-12-31T09:00:54.630Z,15.66
2022-12-31T09:04:01.171Z,15.77
2022-12-31T09:06:37.271Z,15.62
2022-12-31T09:09:18.425Z,15.61
2022-12-31T09:11:58.579Z,15.75
2022-12-31T09:14:44.954Z,15.79
2022-12-31T09:17:44.916Z,15.88
2022-12-31T09:20:36.338Z,15.85
2022-12-31T09:23:16.554Z,15.61
2022-12-31T09:26:08.425Z,15.76
2022-12-31T09:28:49.248Z,15.75
2022-12-31T09:31:33.308Z,15.90
2022-12-31T09:34:10.698Z,16.06
2022-12-31T09:36:48.201Z,16.10
2022-12-31T09:39:32.374Z,16.03
2022-12-31T09:42:54.407Z,16.28
2022-12-31T09:46:20.874Z,16.33
2022-12-31T09:49:37.827Z,16.44
2022-12-31T09:52:18.405Z,16.39
2022-12-31T09:55:09.580Z,16.58
2022-12-31T09:57:47.319Z,16.19
2022-12-31T10:00:26.222Z,16.36
2022-12-31T10:03:17.758Z,16.42
2022-12-31T10:06:05.180Z,16.34
2022-12-31T10:09:02.369Z,16.23
2022-12-31T10:11:53.689Z,16.47
2022-12-31T10:14:46.923Z,16.25
2022-12-31T10:17:37.158Z,16.25
2022-12-31T10:20:31.747Z,16.28
2022-12-31T10:23:22.049Z,16.22
2022-12-31T10:26:25.142Z,16.28
2022-12-31T10:29:01.401Z,16.29
2022-12-31T10:32:00.212Z,16.34
2022-12-31T10:34:43.940Z,16.46
2022-12-31T10:37:19.377Z,16.14
2022-12-31T10:39:57.258Z,16.33
2022-12-31T10:43:11.332Z,16.18
2022-12-31T10:46:44.440Z,16.32
2022-12-31T10:50:16.545Z,16.41
2022-12-31T10:53:33.517Z,16.51
2022-12-31T10:56:40.170Z,16.29
2022-12-31T11:00:01.619Z,16.64
2022-12-31T11:03:32.884Z,16.56
2022-12-31T11:07:30.905Z,16.72
2022-12-31T11:10:50.323Z,16.81
2022-12-31T11:14:22.157Z,16.79
2022-12-31T11:17:13.777Z,16.78
2022-12-31T11:20:00.540Z,16.83
2022-12-31T11:23:07.455Z,16.70
2022-12-31T11:25:49.351Z,17.01
2022-12-31T11:28:44.599Z,16.90
2022-12-31T11:31:41.973Z,17.02
2022-12-31T11:34:28.293Z,17.08
2022-12-31T11:37:23.890Z,16.71
2022-12-31T11:40:06.138Z,16.59
2022-12-31T11:42:47.686Z,16.67
2022-12-31T11:45:35.479Z,17.06
2022-12-31T11:48:31.390Z,16.97
2022-12-31T11:51:35.409Z,16.82
2022-12-31T11:54:51.227Z,16.83
2022-12-31T11:57:26.752Z,16.97
2022-12-31T12:00:00.196Z,16.83
2022-12-31T12:02:31.397Z,16.65
2022-12-31T12:05:11.075Z,16.68
2022-12-31T12:07:41.998Z,16.49
2022-12-31T12:10:29.096Z,16.81
2022-12-31T12:13:02.759Z,16.44
2022-12-31T12:15:37.164Z,16.56
2022-12-31T12:18:11.202Z,16.37
2022-12-31T12:20:42.673Z,16.68
2022-12-31T12:23:18.022Z,16.83
2022-12-31T12:25:48.047Z,16.65
2022-12-31T12:28:23.644Z,16.77
2022-12-31T12:30:59.882Z,16.74
2022-12-31T12:33:30.781Z,16.92
2022-12-31T12:36:12.986Z,16.88
2022-12-31T12:38:41.631Z,16.80
2022-12-31T12:41:20.183Z,16.74
2022-12-31T12:43:48.755Z,16.86
2022-12-31T12:46:24.679Z,16.84
2022-12-31T12:48:58.001Z,17.04
2022-12-31T12:51:59.464Z,17.10
2022-12-31T12:54:48.183Z,16.80
2022-12-31T12:57:26.204Z,16.66
2022-12-31T13:00:10.462Z,16.72
2022-12-31T13:03:16.947Z,16.37
2022-12-31T13:06:09.240Z,16.39
2022-12-31T13:08:59.701Z,16.64
2022-12-31T13:11:42.364Z,16.83
2022-12-31T13:14:26.996Z,16.79
2022-12-31T13:17:05.510Z,16.64
2022-12-31T13:19:41.993Z,16.66
2022-12-31T13:22:21.349Z,17.02
2022-12-31T13:25:00.976Z,16.73
2022-12-31T13:27:35.176Z,16.71
2022-12-31T13:30:17.514Z,16.94
2022-12-31T13:32:51.212Z,16.47
2022-12-31T13:35:33.008Z,16.67
2022-12-31T13:38:07.774Z,16.77
2022-12-31T13:40:49.183Z,16.72
2022-12-31T13:43:27.613Z,17.01
2022-12-31T13:46:09.932Z,16.78
2022-12-31T13:48:49.553Z,16.64
2022-12-31T13:51:31.330Z,16.76
2022-12-31T13:54:06.513Z,16.59
2022-12-31T13:56:40.226Z,16.56
2022-12-31T13:59:17.994Z,16.88
2022-12-31T14:01:57.309Z,16.78
2022-12-31T14:04:33.047Z,16.79
2022-12-31T14:07:12.704Z,16.66
2022-12-31T14:09:42.577Z,16.60
2022-12-31T14:15:24.684Z,16.65
2022-12-31T14:18:08.094Z,16.73
2022-12-31T14:20:48.974Z,16.97
2022-12-31T14:23:41.700Z,16.80
2022-12-31T14:26:21.475Z,16.83
2022-12-31T14:29:03.620Z,16.74
2022-12-31T14:31:57.031Z,16.73
2022-12-31T14:34:42.246Z,16.81
2022-12-31T14:37:19.853Z,16.60
2022-12-31T14:40:00.581Z,16.72
2022-12-31T14:42:38.047Z,16.66
2022-12-31T14:45:27.728Z,16.47
2022-12-31T14:48:02.989Z,16.76
2022-12-31T14:50:35.063Z,16.83
2022-12-31T14:53:21.337Z,16.50
2022-12-31T14:56:00.545Z,16.61
2022-12-31T14:58:39.732Z,16.49
2022-12-31T15:01:22.861Z,16.53
2022-12-31T15:03:51.899Z,16.71
2022-12-31T15:06:56.471Z,16.61
2022-12-31T15:10:03.295Z,16.52
2022-12-31T15:12:51.243Z,16.66
2022-12-31T15:15:59.725Z,16.60
2022-12-31T15:18:44.217Z,16.66
2022-12-31T15:21:53.994Z,16.42
2022-12-31T15:24:25.974Z,16.50
2022-12-31T15:26:59.334Z,16.69
2022-12-31T15:29:32.868Z,16.91
2022-12-31T15:32:06.262Z,16.71
2022-12-31T15:34:38.533Z,16.70
2022-12-31T15:37:32.704Z,16.33
2022-12-31T15:40:20.426Z,16.62
2022-12-31T15:42:56.621Z,16.51
2022-12-31T15:45:35.043Z,16.38
2022-12-31T15:48:11.747Z,16.43
2022-12-31T15:50:43.061Z,16.52
2022-12-31T15:53:28.875Z,16.59
2022-12-31T15:56:01.201Z,16.82
2022-12-31T15:58:35.867Z,16.80
2022-12-31T16:01:11.726Z,16.39
2022-12-31T16:03:46.084Z,16.64
2022-12-31T16:06:20.754Z,16.63
2022-12-31T16:08:56.472Z,16.28
2022-12-31T16:11:26.013Z,16.20
2022-12-31T16:13:57.170Z,16.43
2022-12-31T16:16:29.736Z,16.47
2022-12-31T16:18:59.729Z,16.53
2022-12-31T16:21:34.464Z,16.15
2022-12-31T16:24:08.982Z,16.68
2022-12-31T16:26:47.066Z,16.52
2022-12-31T16:29:21.191Z,16.68
2022-12-31T16:32:01.215Z,16.71
2022-12-31T16:34:42.689Z,16.33
2022-12-31T16:37:18.780Z,16.63
2022-12-31T16:40:22.811Z,16.44
2022-12-31T16:42:53.531Z,16.39
2022-12-31T16:45:34.201Z,16.71
2022-12-31T16:48:14.696Z,16.53
2022-12-31T16:50:46.849Z,16.82
2022-12-31T16:53:21.276Z,16.36
2022-12-31T16:56:01.603Z,16.52
2022-12-31T16:58:34.094Z,16.57
2022-12-31T17:01:18.654Z,16.35
2022-12-31T17:03:54.355Z,16.46
2022-12-31T17:06:26.185Z,16.65
2022-12-31T17:09:20.933Z,16.46
2022-12-31T17:11:56.227Z,16.79
2022-12-31T17:14:28.602Z,16.69
2022-12-31T17:17:06.163Z,16.47
2022-12-31T17:19:46.653Z,16.46
2022-12-31T17:22:34.217Z,16.64
2022-12-31T17:25:10.427Z,16.49
2022-12-31T17:27:40.497Z,17.01
2022-12-31T17:30:50.352Z,17.08
2022-12-31T17:33:33.399Z,16.67
2022-12-31T17:36:25.871Z,16.74
2022-12-31T17:38:55.071Z,16.69
2022-12-31T17:41:30.765Z,17.02
2022-12-31T17:44:03.348Z,16.87
2022-12-31T17:46:43.377Z,16.63
2022-12-31T17:49:15.097Z,16.81
2022-12-31T17:51:47.501Z,16.79
2022-12-31T17:54:17.866Z,16.86
2022-12-31T17:56:47.060Z,16.99
2022-12-31T17:59:20.550Z,17.05
2022-12-31T18:01:50.064Z,17.05
2022-12-31T18:04:20.814Z,16.96
2022-12-31T18:06:49.591Z,16.95
2022-12-31T18:09:31.749Z,17.05
2022-12-31T18:12:03.706Z,17.30
2022-12-31T18:14:34.831Z,17.08
2022-12-31T18:17:03.894Z,17.27
2022-12-31T18:20:03.666Z,16.93
2022-12-31T18:22:22.173Z,17.07
2022-12-31T18:24:55.286Z,17.16
2022-12-31T18:27:24.402Z,17.21
2022-12-31T18:29:59.096Z,17.00
2022-12-31T18:32:34.502Z,16.97
2022-12-31T18:35:03.334Z,16.97
2022-12-31T18:37:33.597Z,17.18
2022-12-31T18:40:03.139Z,17.08
2022-12-31T18:42:32.338Z,16.90
2022-12-31T18:45:02.937Z,17.37
2022-12-31T18:47:37.483Z,16.98
2022-12-31T18:50:08.915Z,17.03
2022-12-31T18:52:38.340Z,17.14
2022-12-31T18:55:26.464Z,16.86
2022-12-31T18:57:55.798Z,17.05
2022-12-31T19:00:26.969Z,17.03
2022-12-31T19:02:58.504Z,16.94
2022-12-31T19:05:32.007Z,17.08
2022-12-31T19:08:01.637Z,17.10
2022-12-31T19:10:30.885Z,17.03
2022-12-31T19:13:00.301Z,16.80
2022-12-31T19:15:34.630Z,17.06
2022-12-31T19:18:04.329Z,16.94
2022-12-31T19:20:33.830Z,17.19
2022-12-31T19:23:02.726Z,17.11
2022-12-31T19:25:38.384Z,17.07
2022-12-31T19:28:16.378Z,16.78
2022-12-31T19:30:47.405Z,16.84
2022-12-31T19:33:20.114Z,16.64
2022-12-31T19:35:50.153Z,16.78
2022-12-31T19:38:23.213Z,16.88
2022-12-31T19:40:53.298Z,16.86
2022-12-31T19:43:24.260Z,17.14
2022-12-31T19:45:55.559Z,17.16
2022-12-31T19:48:32.649Z,16.76
2022-12-31T19:51:02.291Z,16.81
2022-12-31T19:53:31.713Z,16.78
2022-12-31T19:56:00.723Z,16.99
2022-12-31T19:58:30.019Z,16.98
2022-12-31T20:01:03.219Z,16.77
2022-12-31T20:03:33.574Z,16.81
2022-12-31T20:06:05.589Z,16.71
2022-12-31T20:08:34.896Z,16.54
2022-12-31T20:11:10.450Z,16.68
2022-12-31T20:13:40.421Z,16.66
2022-12-31T20:16:13.368Z,16.76
2022-12-31T20:18:43.820Z,16.70
2022-12-31T20:21:17.831Z,16.62
2022-12-31T20:23:47.183Z,16.74
2022-12-31T20:26:16.205Z,16.83
2022-12-31T20:28:46.330Z,16.93
2022-12-31T20:31:19.386Z,16.90
2022-12-31T20:33:50.759Z,16.77
2022-12-31T20:36:20.115Z,16.72
2022-12-31T20:38:50.053Z,16.69
2022-12-31T20:41:21.784Z,16.83
2022-12-31T20:43:51.388Z,16.81
2022-12-31T20:46:27.575Z,16.60
2022-12-31T20:49:02.065Z,16.80
2022-12-31T20:51:33.533Z,16.64
2022-12-31T20:54:09.190Z,16.93
2022-12-31T20:56:41.346Z,16.49
2022-12-31T20:59:11.811Z,16.70
2022-12-31T21:02:19.435Z,16.63
2022-12-31T21:04:34.042Z,16.85
2022-12-31T21:07:02.930Z,16.58
2022-12-31T21:09:37.453Z,16.65
2022-12-31T21:12:24.154Z,16.47
2022-12-31T21:14:52.784Z,16.52
2022-12-31T21:17:25.308Z,16.55
2022-12-31T21:19:54.543Z,16.36
2022-12-31T21:22:24.304Z,16.45
2022-12-31T21:24:53.211Z,16.47
2022-12-31T21:27:24.562Z,16.47
2022-12-31T21:30:17.855Z,16.66
2022-12-31T21:32:47.746Z,16.30
2022-12-31T21:38:08.672Z,16.63
2022-12-31T21:40:37.677Z,16.57
2022-12-31T21:43:06.331Z,16.46
2022-12-31T21:45:35.692Z,16.44
2022-12-31T21:48:25.092Z,16.80
2022-12-31T21:50:57.719Z,16.80
2022-12-31T21:53:36.138Z,16.64
2022-12-31T21:56:14.841Z,16.92
2022-12-31T21:58:45.898Z,16.84
2022-12-31T22:01:37.695Z,16.84
2022-12-31T22:04:28.126Z,16.60
2022-12-31T22:06:57.396Z,16.97
2022-12-31T22:10:52.837Z,16.81
2022-12-31T22:13:22.301Z,16.60
2022-12-31T22:16:05.171Z,16.77
2022-12-31T22:18:39.677Z,16.71
2022-12-31T22:21:18.426Z,16.76
2022-12-31T22:23:51.868Z,16.61
2022-12-31T22:26:26.753Z,16.62
2022-12-31T22:28:59.361Z,16.69
2022-12-31T22:31:31.504Z,16.39
2022-12-31T22:34:02.248Z,16.32
2022-12-31T22:36:30.998Z,16.63
2022-12-31T22:39:03.355Z,16.58
2022-12-31T22:41:33.575Z,16.48
2022-12-31T22:44:04.760Z,16.82
2022-12-31T22:46:35.685Z,16.65
2022-12-31T22:49:07.004Z,16.65
2022-12-31T22:51:56.670Z,16.87
2022-12-31T22:54:27.233Z,16.79
2022-12-31T22:56:57.400Z,16.79
2022-12-31T22:59:27.355Z,16.72
2022-12-31T23:01:56.388Z,16.78
2022-12-31T23:04:25.171Z,16.83
2022-12-31T23:06:54.231Z,16.99
2022-12-31T23:09:40.243Z,17.00
2022-12-31T23:12:11.611Z,17.02
2022-12-31T23:15:00.279Z,16.97
2022-12-31T23:17:48.196Z,16.68
2022-12-31T23:20:37.545Z,16.92
2022-12-31T23:23:09.902Z,16.93
2022-12-31T23:25:43.487Z,16.63
2022-12-31T23:28:16.675Z,16.68
2022-12-31T23:30:47.023Z,16.82
2022-12-31T23:33:19.545Z,16.71
2022-12-31T23:35:50.918Z,16.85
2022-12-31T23:38:20.022Z,16.47
2022-12-31T23:40:49.850Z,16.68
2022-12-31T23:43:23.372Z,16.72
2022-12-31T23:45:53.434Z,16.35
2022-12-31T23:48:22.297Z,16.52
2022-12-31T23:50:54.982Z,16.69
2022-12-31T23:53:24.079Z,16.40
2022-12-31T23:55:53.855Z,16.41
2022-12-31T23:58:25.675Z,16.36
